Time;durP1;ratioP1;P1;durP2;ratioP2;P2;SDS_P1;SDS_P2;PMS_P1;PMS_P2;Temp;Humidity;BMP_temperature;BMP_pressure;BME280_temperature;BME280_humidity;BME280_pressure;Samples;Min_cycle;Max_cycle;Signal;HPM_P1;HPM_P2
2022/07/02 00:01:53;;;;;;;6.97;4.70;;;30.00;56.50;;;;;;5088901;28;20063;-86
2022/07/02 00:04:25;;;;;;;7.03;4.68;;;30.20;56.40;;;;;;5089276;28;20027;-78
2022/07/02 00:06:51;;;;;;;9.07;5.03;;;30.00;56.10;;;;;;5089836;28;20021;-84
2022/07/02 00:09:18;;;;;;;7.13;4.40;;;29.90;56.60;;;;;;5088731;28;20020;-83
2022/07/02 00:11:47;;;;;;;8.05;4.90;;;29.80;56.50;;;;;;5089837;28;20066;-84
2022/07/02 00:14:15;;;;;;;5.88;4.38;;;29.90;56.20;;;;;;5088583;28;20035;-80
2022/07/02 00:16:45;;;;;;;7.75;4.82;;;30.30;55.80;;;;;;5088418;28;20024;-77
2022/07/02 00:19:13;;;;;;;5.93;5.18;;;30.40;55.70;;;;;;5088294;28;20027;-80
2022/07/02 00:21:39;;;;;;;5.95;4.65;;;30.60;55.60;;;;;;5088311;28;20109;-80
2022/07/02 00:24:09;;;;;;;5.57;4.53;;;30.50;55.70;;;;;;5088938;28;20043;-78
2022/07/02 00:26:39;;;;;;;6.05;4.65;;;30.10;56.30;;;;;;5088340;28;20139;-80
2022/07/02 00:29:27;;;;;;;8.27;5.30;;;30.00;56.60;;;;;;5089410;28;20020;-77
2022/07/02 00:31:53;;;;;;;5.70;4.72;;;30.00;56.60;;;;;;5088442;28;20073;-81
2022/07/02 00:34:22;;;;;;;7.10;5.20;;;30.00;57.00;;;;;;5075348;28;20020;-78
2022/07/02 00:36:49;;;;;;;9.30;5.80;;;29.80;57.10;;;;;;5076142;28;20028;-77
2022/07/02 00:39:15;;;;;;;6.95;5.40;;;30.00;57.00;;;;;;5075928;28;20020;-78
2022/07/02 00:41:42;;;;;;;7.85;5.22;;;30.20;56.70;;;;;;5074455;28;20036;-84
2022/07/02 00:44:08;;;;;;;6.75;5.38;;;30.30;56.40;;;;;;5075703;28;20025;-80
2022/07/02 00:46:36;;;;;;;6.00;5.03;;;30.40;56.30;;;;;;5074714;28;20029;-78
2022/07/02 00:49:02;;;;;;;8.35;4.90;;;30.40;55.70;;;;;;5075801;28;20016;-85
2022/07/02 00:51:28;;;;;;;8.32;5.10;;;30.50;55.60;;;;;;5073742;28;20028;-82
2022/07/02 00:53:54;;;;;;;8.35;5.18;;;30.50;55.70;;;;;;5074499;28;20471;-84
2022/07/02 00:56:20;;;;;;;6.50;4.97;;;30.50;55.80;;;;;;5075883;28;20081;-84
2022/07/02 00:58:46;;;;;;;8.15;5.30;;;30.40;56.20;;;;;;5075908;28;20090;-78
2022/07/02 01:01:13;;;;;;;47.13;26.48;;;30.20;56.20;;;;;;5075778;28;20364;-83
2022/07/02 01:03:41;;;;;;;7.25;4.93;;;29.90;56.30;;;;;;5075313;28;20043;-79
2022/07/02 01:06:06;;;;;;;9.05;5.35;;;29.60;57.30;;;;;;5074253;28;20025;-81
2022/07/02 01:11:18;;;;;;;6.32;4.95;;;29.30;57.90;;;;;;5075496;28;20383;-81
2022/07/02 01:13:44;;;;;;;7.90;4.68;;;29.00;58.50;;;;;;5073785;28;20052;-90
2022/07/02 01:16:10;;;;;;;6.03;4.85;;;28.90;58.90;;;;;;5075060;28;20553;-85
2022/07/02 01:18:37;;;;;;;6.50;4.93;;;28.90;58.80;;;;;;5075223;28;20115;-83
2022/07/02 01:21:03;;;;;;;7.07;4.90;;;29.00;58.60;;;;;;5073700;28;20052;-79
2022/07/02 01:23:29;;;;;;;6.15;4.53;;;28.90;59.00;;;;;;5075537;28;20024;-76
2022/07/02 01:25:55;;;;;;;6.43;4.75;;;28.70;59.50;;;;;;5073977;28;20199;-85
2022/07/02 01:28:21;;;;;;;7.72;5.22;;;28.80;59.40;;;;;;5074002;28;20028;-83
2022/07/02 01:30:48;;;;;;;5.95;4.72;;;28.70;59.70;;;;;;5074951;28;20081;-78
2022/07/02 01:33:14;;;;;;;8.50;5.10;;;28.60;59.70;;;;;;5075330;28;20029;-82
2022/07/02 01:35:40;;;;;;;5.15;4.45;;;28.30;60.20;;;;;;5074970;28;20031;-77
2022/07/02 01:38:05;;;;;;;8.55;5.03;;;27.90;61.10;;;;;;5074553;28;20483;-81
2022/07/02 01:40:31;;;;;;;6.60;4.50;;;27.90;61.20;;;;;;5073537;28;20111;-81
2022/07/02 01:42:57;;;;;;;6.75;4.32;;;28.10;61.30;;;;;;5073623;28;20040;-81
2022/07/02 01:45:22;;;;;;;6.32;4.38;;;28.10;61.30;;;;;;5072469;28;20032;-87
2022/07/02 01:47:48;;;;;;;7.47;4.10;;;28.00;61.40;;;;;;5073457;28;20032;-79
2022/07/02 01:50:14;;;;;;;7.65;3.70;;;27.80;61.40;;;;;;5074523;28;20460;-76
2022/07/02 01:52:40;;;;;;;6.28;3.30;;;27.70;61.80;;;;;;5074534;28;20082;-81
2022/07/02 01:55:06;;;;;;;7.85;3.80;;;27.60;61.60;;;;;;5074570;28;20028;-79
2022/07/02 01:57:35;;;;;;;6.50;3.45;;;27.60;61.70;;;;;;5073510;28;20043;-84
2022/07/02 02:00:04;;;;;;;4.45;3.00;;;27.60;61.40;;;;;;5073228;28;20029;-81
2022/07/02 02:02:29;;;;;;;4.22;2.90;;;27.50;61.60;;;;;;5074145;28;20036;-84
2022/07/02 02:04:55;;;;;;;4.65;2.83;;;27.20;62.30;;;;;;5074170;28;20090;-78
2022/07/02 02:07:21;;;;;;;4.25;2.55;;;27.30;61.90;;;;;;5072797;28;20024;-80
2022/07/02 02:09:47;;;;;;;4.88;2.80;;;27.30;61.90;;;;;;5074266;28;20031;-82
2022/07/02 02:12:12;;;;;;;3.95;2.80;;;26.70;62.70;;;;;;5073941;28;20095;-78
2022/07/02 02:14:38;;;;;;;4.38;2.40;;;26.70;62.60;;;;;;5073717;28;20020;-76
2022/07/02 02:17:04;;;;;;;4.97;2.50;;;26.60;62.50;;;;;;5073431;28;20031;-77
2022/07/02 02:19:30;;;;;;;4.22;2.33;;;26.50;62.60;;;;;;5074244;28;20021;-82
2022/07/02 02:21:56;;;;;;;3.83;2.47;;;26.60;61.90;;;;;;5073810;28;20550;-80
2022/07/02 02:24:22;;;;;;;3.65;2.30;;;26.70;61.60;;;;;;5073547;28;20096;-84
2022/07/02 02:26:47;;;;;;;3.97;2.40;;;26.70;61.70;;;;;;5073736;28;20478;-85
2022/07/02 02:29:13;;;;;;;3.92;2.13;;;26.70;61.10;;;;;;5072734;28;20029;-81
2022/07/02 02:31:39;;;;;;;4.25;2.15;;;26.50;61.60;;;;;;5073326;28;20028;-88
2022/07/02 02:34:04;;;;;;;5.05;2.30;;;26.40;61.70;;;;;;5073734;28;20031;-81
2022/07/02 02:36:30;;;;;;;3.97;2.30;;;26.70;61.20;;;;;;5073269;28;20394;-78
2022/07/02 02:38:56;;;;;;;4.03;2.40;;;26.50;61.20;;;;;;5071505;28;20028;-80
2022/07/02 02:41:21;;;;;;;5.72;2.15;;;26.20;61.90;;;;;;5073151;28;20029;-82
2022/07/02 02:43:47;;;;;;;3.65;2.30;;;26.20;61.90;;;;;;5073299;28;20030;-80
2022/07/02 02:46:13;;;;;;;5.40;2.40;;;26.20;61.90;;;;;;5073479;28;20406;-86
2022/07/02 02:48:39;;;;;;;3.35;2.20;;;26.20;61.90;;;;;;5072533;28;20024;-77
2022/07/02 02:51:07;;;;;;;3.10;2.30;;;26.10;61.90;;;;;;5071874;28;20029;-81
2022/07/02 02:53:33;;;;;;;4.32;2.20;;;26.30;61.90;;;;;;5072532;28;20025;-78
2022/07/02 02:55:59;;;;;;;3.50;2.30;;;26.30;61.80;;;;;;5071747;28;20032;-83
2022/07/02 02:58:26;;;;;;;5.22;2.15;;;26.20;61.90;;;;;;5073235;28;20043;-81
2022/07/02 03:00:52;;;;;;;5.38;2.10;;;26.20;62.10;;;;;;5071714;28;20040;-82
2022/07/02 03:03:18;;;;;;;5.53;2.20;;;26.30;62.00;;;;;;5071825;28;20368;-79
2022/07/02 03:05:43;;;;;;;6.78;2.05;;;26.20;61.60;;;;;;5073114;28;20032;-77
2022/07/02 03:08:09;;;;;;;6.57;2.53;;;25.70;62.80;;;;;;5073191;28;20024;-79
2022/07/02 03:10:35;;;;;;;4.20;2.40;;;25.40;63.60;;;;;;5072841;28;20036;-86
2022/07/02 03:13:00;;;;;;;4.35;2.40;;;25.10;64.00;;;;;;5072098;28;20071;-76
2022/07/02 03:15:26;;;;;;;5.65;2.50;;;25.20;64.20;;;;;;5071390;28;20025;-84
2022/07/02 03:17:52;;;;;;;5.80;2.65;;;25.40;63.50;;;;;;5071334;28;20024;-79
2022/07/02 03:20:18;;;;;;;4.85;2.47;;;25.30;63.50;;;;;;5070889;28;20380;-79
2022/07/02 03:24:33;;;;;;;4.35;2.70;;;25.10;63.80;;;;;;5086170;27;1445529;-77
2022/07/02 03:26:59;;;;;;;8.27;3.25;;;25.00;64.80;;;;;;5093146;28;20028;-77
2022/07/02 03:29:26;;;;;;;4.72;2.50;;;24.80;64.70;;;;;;5092843;28;20551;-81
2022/07/02 03:31:51;;;;;;;4.32;2.72;;;24.90;64.80;;;;;;5092776;28;20445;-77
2022/07/02 03:34:17;;;;;;;4.40;3.03;;;25.30;64.30;;;;;;5092451;28;20562;-80
2022/07/02 03:36:43;;;;;;;4.75;3.22;;;25.20;63.90;;;;;;5092431;28;20532;-78
2022/07/02 03:39:09;;;;;;;5.47;2.80;;;25.20;64.80;;;;;;5092652;28;20078;-81
2022/07/02 03:41:34;;;;;;;4.22;2.78;;;25.10;64.20;;;;;;5110101;28;20030;-82
2022/07/02 03:44:00;;;;;;;4.82;2.92;;;25.10;64.30;;;;;;5092377;28;20036;-78
2022/07/02 03:46:26;;;;;;;5.07;2.72;;;25.30;64.40;;;;;;5092393;28;20054;-78
2022/07/02 03:48:51;;;;;;;6.40;3.08;;;25.40;64.40;;;;;;5110474;28;20023;-81
2022/07/02 03:51:17;;;;;;;5.70;3.10;;;25.20;64.40;;;;;;5091902;28;20020;-78
2022/07/02 03:53:44;;;;;;;4.50;3.00;;;25.10;64.40;;;;;;5109896;28;20081;-77
2022/07/02 03:56:10;;;;;;;3.95;3.00;;;25.10;64.80;;;;;;5109813;28;20107;-82
2022/07/02 03:58:36;;;;;;;5.65;2.85;;;25.20;64.90;;;;;;5092583;28;20110;-85
2022/07/02 04:01:01;;;;;;;4.68;3.30;;;25.50;64.10;;;;;;5092284;28;20433;-81
2022/07/02 04:03:27;;;;;;;4.63;3.20;;;25.50;64.00;;;;;;5110729;28;20115;-86
2022/07/02 04:05:53;;;;;;;6.30;3.03;;;25.30;64.20;;;;;;5110230;28;20113;-81
2022/07/02 04:08:19;;;;;;;4.85;3.10;;;25.50;64.00;;;;;;5092530;28;20023;-78
2022/07/02 04:10:45;;;;;;;4.20;3.10;;;25.70;63.80;;;;;;5092324;28;20035;-80
2022/07/02 04:13:12;;;;;;;3.58;2.60;;;25.70;63.80;;;;;;5081122;28;20475;-78
2022/07/02 04:15:38;;;;;;;5.25;2.97;;;25.80;64.00;;;;;;5071982;28;20016;-80
2022/07/02 04:18:03;;;;;;;3.70;2.80;;;25.90;63.50;;;;;;5071546;28;20367;-75
2022/07/02 04:20:29;;;;;;;6.20;2.90;;;25.70;63.50;;;;;;5090110;28;20450;-80
2022/07/02 04:22:55;;;;;;;6.03;2.97;;;25.70;64.00;;;;;;5089189;28;20027;-80
2022/07/02 04:25:21;;;;;;;3.97;2.60;;;25.80;64.10;;;;;;5089278;28;20400;-88
2022/07/02 04:27:47;;;;;;;5.63;3.03;;;26.00;63.90;;;;;;5089885;28;20025;-84
2022/07/02 04:30:13;;;;;;;5.05;3.22;;;25.90;63.70;;;;;;5089996;28;20701;-80
2022/07/02 04:32:39;;;;;;;4.80;2.80;;;25.70;64.20;;;;;;5089603;28;20162;-80
2022/07/02 04:35:06;;;;;;;4.45;3.10;;;25.90;63.80;;;;;;5063168;28;20024;-80
2022/07/02 04:37:32;;;;;;;5.85;2.80;;;25.90;63.70;;;;;;5057927;28;20094;-82
2022/07/02 04:39:58;;;;;;;4.68;3.33;;;25.90;63.80;;;;;;5058169;28;20058;-83
2022/07/02 04:42:24;;;;;;;4.03;3.13;;;25.90;63.70;;;;;;5058098;28;20029;-82
2022/07/02 04:44:50;;;;;;;6.65;3.40;;;26.10;63.30;;;;;;5076038;28;20031;-82
2022/07/02 04:47:16;;;;;;;3.80;2.80;;;25.80;63.70;;;;;;5057917;28;20039;-88
2022/07/02 04:49:41;;;;;;;6.90;3.10;;;25.80;64.20;;;;;;5075937;28;20063;-81
2022/07/02 04:52:07;;;;;;;6.97;2.90;;;25.90;63.40;;;;;;5058157;28;20387;-86
2022/07/02 04:54:33;;;;;;;5.07;2.95;;;26.10;63.30;;;;;;5076049;28;20085;-82
2022/07/02 04:56:58;;;;;;;4.43;2.95;;;26.30;63.40;;;;;;5058286;28;20375;-82
2022/07/02 04:59:24;;;;;;;4.57;3.00;;;26.50;62.80;;;;;;5058151;28;20025;-80
2022/07/02 05:01:51;;;;;;;3.95;2.85;;;26.80;62.40;;;;;;5076042;28;20024;-86
2022/07/02 05:04:18;;;;;;;3.60;2.88;;;26.80;62.20;;;;;;5075520;28;20028;-82
2022/07/02 05:06:43;;;;;;;5.63;3.30;;;26.80;62.00;;;;;;5075798;28;20028;-79
2022/07/02 05:09:09;;;;;;;4.63;2.83;;;26.50;62.30;;;;;;5075200;28;20051;-83
2022/07/02 05:11:35;;;;;;;4.03;2.90;;;26.50;62.60;;;;;;5057150;28;20020;-85
2022/07/02 05:14:01;;;;;;;5.55;3.00;;;26.50;62.40;;;;;;5057891;28;20493;-85
2022/07/02 05:16:28;;;;;;;4.25;2.92;;;26.70;62.40;;;;;;5075587;28;20036;-92
2022/07/02 05:18:53;;;;;;;4.82;3.10;;;26.80;62.00;;;;;;5057383;28;20028;-82
2022/07/02 05:21:19;;;;;;;4.38;3.13;;;27.10;61.30;;;;;;5074974;28;20039;-81
2022/07/02 05:23:45;;;;;;;4.28;3.03;;;27.30;60.70;;;;;;5075251;28;20049;-79
2022/07/02 05:26:10;;;;;;;5.53;3.03;;;27.40;60.50;;;;;;5057737;28;20021;-83
2022/07/02 05:28:36;;;;;;;4.72;3.20;;;27.50;60.70;;;;;;5075356;28;20031;-81
2022/07/02 05:31:02;;;;;;;5.45;3.17;;;27.30;60.70;;;;;;5075342;28;20475;-80
2022/07/02 05:33:28;;;;;;;4.75;3.40;;;27.30;60.60;;;;;;5056991;28;20024;-81
2022/07/02 05:35:54;;;;;;;7.22;3.42;;;27.50;60.70;;;;;;5057391;28;20021;-79
2022/07/02 05:38:20;;;;;;;4.45;3.22;;;27.70;60.40;;;;;;5057160;28;20383;-81
2022/07/02 05:40:46;;;;;;;5.22;3.20;;;27.70;60.10;;;;;;5074428;28;20052;-78
2022/07/02 05:43:12;;;;;;;5.32;3.40;;;27.90;59.40;;;;;;5075416;28;20480;-80
2022/07/02 05:45:38;;;;;;;5.72;3.50;;;27.80;59.90;;;;;;5056343;28;20029;-82
2022/07/02 05:48:04;;;;;;;4.80;3.40;;;27.90;59.60;;;;;;5056122;28;20584;-76
2022/07/02 05:50:32;;;;;;;3.72;3.00;;;28.00;59.50;;;;;;5056589;28;20028;-82
2022/07/02 05:52:58;;;;;;;4.90;3.60;;;28.30;59.20;;;;;;5074597;28;20032;-85
2022/07/02 05:55:24;;;;;;;6.15;3.20;;;28.30;58.90;;;;;;5057077;28;20021;-79
2022/07/02 05:57:49;;;;;;;4.07;3.30;;;28.10;59.10;;;;;;5074523;28;20078;-85
2022/07/02 06:00:15;;;;;;;5.10;3.33;;;28.20;59.30;;;;;;5056678;28;20017;-81
2022/07/02 06:02:41;;;;;;;4.30;3.50;;;28.10;59.50;;;;;;5074771;28;20115;-89
2022/07/02 06:07:52;;;;;;;5.55;3.60;;;28.40;58.80;;;;;;5074505;28;20106;-88
2022/07/02 06:10:19;;;;;;;4.95;3.58;;;28.50;58.80;;;;;;5056501;28;20364;-79
2022/07/02 06:12:47;;;;;;;5.85;3.45;;;29.00;58.30;;;;;;5056011;28;20024;-83
2022/07/02 06:15:12;;;;;;;5.03;3.17;;;29.30;57.70;;;;;;5074274;28;20490;-88
2022/07/02 06:17:38;;;;;;;4.20;3.40;;;29.20;57.80;;;;;;5056356;28;20055;-87
2022/07/02 06:20:04;;;;;;;5.35;3.53;;;29.00;57.90;;;;;;5073570;28;20474;-80
2022/07/02 06:22:30;;;;;;;4.32;3.70;;;28.90;57.80;;;;;;5056298;28;20071;-79
2022/07/02 06:24:55;;;;;;;5.93;3.35;;;29.10;57.80;;;;;;5074136;28;20395;-77
2022/07/02 06:27:21;;;;;;;5.75;3.30;;;29.00;57.80;;;;;;5073920;28;20048;-84
2022/07/02 06:29:48;;;;;;;5.45;3.50;;;28.90;58.70;;;;;;5073837;28;20477;-81
2022/07/02 06:32:17;;;;;;;6.35;3.72;;;29.10;58.30;;;;;;4711431;28;9999790;-81
2022/07/02 06:34:44;;;;;;;5.35;3.75;;;29.10;57.60;;;;;;5073764;28;20382;-79
2022/07/02 06:37:10;;;;;;;5.22;3.70;;;29.00;58.10;;;;;;5091658;28;20032;-81
2022/07/02 06:39:37;;;;;;;4.97;4.05;;;29.00;58.00;;;;;;5072946;28;20035;-82
2022/07/02 06:44:52;;;;;;;4.05;3.42;;;29.10;57.10;;;;;;5090741;28;20081;-77
2022/07/02 06:47:18;;;;;;;6.10;3.53;;;29.30;57.30;;;;;;5092522;28;20028;-81
2022/07/02 06:49:45;;;;;;;4.82;3.85;;;29.50;57.30;;;;;;5073822;28;20247;-78
2022/07/02 06:52:11;;;;;;;4.22;3.33;;;29.60;57.30;;;;;;5091740;28;20028;-83
2022/07/02 06:54:37;;;;;;;5.13;3.50;;;29.30;57.10;;;;;;5074084;28;20020;-80
2022/07/02 06:57:04;;;;;;;5.13;3.60;;;29.10;57.50;;;;;;5073029;28;20036;-82
2022/07/02 06:59:30;;;;;;;4.43;3.65;;;29.10;57.10;;;;;;5074626;28;20028;-82
2022/07/02 07:01:56;;;;;;;6.20;3.90;;;29.20;57.50;;;;;;5090993;28;20039;-78
2022/07/02 07:04:21;;;;;;;5.28;3.83;;;29.50;57.40;;;;;;5072735;28;20475;-82
2022/07/02 07:06:56;;;;;;;5.35;4.20;;;29.70;56.10;;;;;;5073303;28;20028;-85
2022/07/02 07:09:23;;;;;;;5.03;3.80;;;29.70;56.50;;;;;;5073698;28;20028;-83
2022/07/02 07:11:49;;;;;;;6.88;4.05;;;29.60;56.80;;;;;;5091349;28;20028;-81
2022/07/02 07:14:14;;;;;;;4.97;3.83;;;29.70;56.20;;;;;;5075399;28;20060;-82
2022/07/02 07:16:40;;;;;;;7.00;3.97;;;29.70;56.20;;;;;;5093379;28;20093;-84
2022/07/02 07:19:06;;;;;;;4.78;3.97;;;29.90;56.80;;;;;;5075627;28;20059;-82
2022/07/02 07:21:32;;;;;;;6.93;3.72;;;30.00;56.10;;;;;;5075737;28;20115;-81
2022/07/02 07:23:58;;;;;;;4.47;3.50;;;30.30;57.30;;;;;;5075541;28;20109;-88
2022/07/02 07:26:24;;;;;;;3.92;3.47;;;30.80;56.20;;;;;;5093661;28;20016;-93
2022/07/02 07:28:50;;;;;;;6.50;3.70;;;30.90;55.30;;;;;;5075624;28;20363;-85
2022/07/02 07:31:21;;;;;;;6.05;3.88;;;30.80;55.50;;;;;;5075522;28;20383;-86
2022/07/02 07:33:48;;;;;;;4.53;3.63;;;30.60;55.30;;;;;;5093149;28;20024;-90
2022/07/02 07:36:14;;;;;;;6.13;3.95;;;30.70;55.80;;;;;;5075349;28;20035;-79
2022/07/02 07:38:40;;;;;;;4.88;3.88;;;30.90;55.50;;;;;;5075681;28;20028;-80
2022/07/02 07:41:06;;;;;;;6.07;3.85;;;31.00;55.70;;;;;;5093829;28;20031;-85
2022/07/02 07:43:31;;;;;;;5.45;4.20;;;31.10;55.00;;;;;;5093335;28;20034;-85
2022/07/02 07:45:57;;;;;;;4.95;3.83;;;31.10;54.90;;;;;;5093183;28;20044;-80
2022/07/02 07:48:23;;;;;;;5.32;3.60;;;31.10;54.70;;;;;;5093137;28;20080;-80
2022/07/02 07:50:50;;;;;;;7.82;3.90;;;31.30;54.90;;;;;;5092687;28;20058;-81
2022/07/02 07:53:16;;;;;;;7.18;3.85;;;31.40;54.40;;;;;;5092839;28;20024;-78
2022/07/02 07:55:42;;;;;;;4.95;4.15;;;31.30;54.30;;;;;;5093718;28;20031;-89
2022/07/02 07:58:07;;;;;;;9.02;4.57;;;30.90;54.70;;;;;;5075455;28;20547;-81
2022/07/02 08:00:33;;;;;;;7.22;3.95;;;30.60;54.70;;;;;;5093200;28;20034;-81
2022/07/02 08:02:59;;;;;;;8.63;3.97;;;30.50;54.70;;;;;;5092818;28;20107;-79
2022/07/02 08:05:25;;;;;;;4.75;3.97;;;30.50;54.70;;;;;;5093300;28;20027;-82
2022/07/02 08:07:51;;;;;;;4.70;3.88;;;30.50;55.20;;;;;;5092207;28;20028;-80
2022/07/02 08:10:17;;;;;;;4.68;3.65;;;31.00;55.40;;;;;;5076343;28;20055;-82
2022/07/02 08:12:43;;;;;;;7.25;4.10;;;31.50;54.90;;;;;;5077638;28;20027;-81
2022/07/02 08:15:10;;;;;;;7.65;4.32;;;31.60;54.30;;;;;;5096690;28;20024;-85
2022/07/02 08:17:36;;;;;;;7.90;4.40;;;31.40;53.60;;;;;;5078657;28;20390;-81
2022/07/02 08:20:05;;;;;;;4.50;4.00;;;31.20;54.30;;;;;;5078209;28;20387;-80
2022/07/02 08:22:32;;;;;;;4.93;3.80;;;31.20;54.60;;;;;;5078384;28;20016;-82
2022/07/02 08:24:58;;;;;;;6.35;3.70;;;31.00;54.50;;;;;;5074985;28;20052;-78
2022/07/02 08:27:24;;;;;;;5.80;3.80;;;31.30;54.70;;;;;;5075036;28;20032;-83
2022/07/02 08:29:50;;;;;;;4.80;3.80;;;31.40;54.90;;;;;;5074826;28;20031;-80
2022/07/02 08:32:15;;;;;;;5.50;4.10;;;31.60;54.80;;;;;;5074837;28;20027;-82
2022/07/02 08:34:41;;;;;;;5.78;3.90;;;31.60;54.20;;;;;;5075687;28;20056;-89
2022/07/02 08:37:10;;;;;;;6.70;4.10;;;31.40;54.90;;;;;;5075251;28;20020;-90
2022/07/02 08:39:36;;;;;;;8.70;3.88;;;31.20;54.40;;;;;;5075006;28;20027;-82
2022/07/02 08:42:03;;;;;;;5.28;4.40;;;31.00;54.80;;;;;;5076270;28;20081;-82
2022/07/02 08:44:32;;;;;;;5.03;3.95;;;31.30;54.70;;;;;;5074925;28;20032;-80
2022/07/02 08:46:59;;;;;;;9.18;4.30;;;31.40;54.80;;;;;;5075862;28;20025;-85
2022/07/02 08:49:26;;;;;;;61.33;6.18;;;31.60;54.50;;;;;;5074041;28;20029;-82
2022/07/02 08:52:06;;;;;;;8.55;4.03;;;31.80;54.20;;;;;;4368859;28;10021499;-80
2022/07/02 08:54:32;;;;;;;15.82;4.30;;;32.00;54.00;;;;;;5048870;28;20025;-80
2022/07/02 08:57:01;;;;;;;7.88;4.40;;;31.80;53.90;;;;;;5052708;28;20086;-79
2022/07/02 08:59:30;;;;;;;8.10;3.95;;;31.30;54.20;;;;;;5052005;28;20043;-79
2022/07/02 09:01:56;;;;;;;8.05;3.83;;;31.10;54.20;;;;;;5050506;28;20036;-77
2022/07/02 09:04:24;;;;;;;9.82;4.40;;;31.20;54.10;;;;;;5052142;28;20120;-77
2022/07/02 09:06:53;;;;;;;7.55;4.20;;;31.30;55.00;;;;;;5051676;28;20021;-75
2022/07/02 09:09:19;;;;;;;6.18;3.95;;;31.40;53.50;;;;;;5051029;28;20500;-81
2022/07/02 09:11:45;;;;;;;5.47;3.85;;;31.60;54.40;;;;;;5071350;28;20032;-90
2022/07/02 09:14:12;;;;;;;9.60;4.30;;;32.20;54.10;;;;;;5051613;28;20029;-81
2022/07/02 09:16:38;;;;;;;4.65;3.83;;;32.60;53.10;;;;;;5051771;28;20056;-84
2022/07/02 09:19:04;;;;;;;6.25;3.92;;;32.80;53.00;;;;;;5051766;28;20057;-81
2022/07/02 09:21:50;;;;;;;6.22;4.05;;;32.80;53.10;;;;;;5051279;28;20119;-84
2022/07/02 09:24:34;;;;;;;8.13;4.25;;;32.50;53.40;;;;;;5064269;28;20054;-84
2022/07/02 09:27:07;;;;;;;10.52;4.90;;;32.60;53.10;;;;;;5055541;28;20162;-79
2022/07/02 09:29:47;;;;;;;5.40;4.10;;;32.80;53.10;;;;;;5055337;28;20127;-78
2022/07/02 09:32:14;;;;;;;7.10;4.20;;;33.20;53.30;;;;;;5073177;28;20051;-81
2022/07/02 09:34:50;;;;;;;6.68;4.18;;;33.10;51.80;;;;;;5055414;28;20387;-82
2022/07/02 09:37:20;;;;;;;4.90;4.10;;;33.10;53.10;;;;;;5049121;28;20112;-78
2022/07/02 09:39:48;;;;;;;7.70;3.97;;;33.20;51.90;;;;;;5049316;28;20028;-84
2022/07/02 09:42:23;;;;;;;6.80;3.95;;;33.20;52.90;;;;;;5070517;28;20169;-77
2022/07/02 09:44:50;;;;;;;5.72;4.07;;;33.20;52.70;;;;;;5074282;28;20440;-87
2022/07/02 09:47:16;;;;;;;7.20;4.15;;;33.40;52.80;;;;;;5073581;28;20478;-89
2022/07/02 09:49:48;;;;;;;6.72;4.03;;;33.60;52.30;;;;;;5055913;28;20089;-85
2022/07/02 09:52:15;;;;;;;8.43;4.00;;;33.90;53.20;;;;;;5054672;28;20034;-90
2022/07/02 09:54:42;;;;;;;5.35;4.10;;;34.10;51.90;;;;;;5055771;28;20070;-81
2022/07/02 09:57:13;;;;;;;4.97;3.83;;;34.20;51.20;;;;;;5055069;28;20021;-82
2022/07/02 09:59:39;;;;;;;;;;;33.90;51.50;;;;;;5073473;28;20450;-85
2022/07/02 10:02:17;;;;;;;6.72;4.10;;;34.00;51.80;;;;;;5072233;28;20330;-77
2022/07/02 10:04:44;;;;;;;5.75;3.75;;;33.90;51.50;;;;;;5054937;28;20044;-87
2022/07/02 10:07:10;;;;;;;7.55;4.28;;;33.80;52.10;;;;;;5072751;28;20024;-85
2022/07/02 10:09:39;;;;;;;6.68;3.70;;;34.00;51.80;;;;;;5072534;28;20051;-83
2022/07/02 10:12:07;;;;;;;6.95;3.85;;;34.10;51.90;;;;;;5054534;28;20478;-85
2022/07/02 10:14:35;;;;;;;8.35;4.20;;;34.20;51.20;;;;;;5073003;28;20085;-79
2022/07/02 10:17:02;;;;;;;5.00;3.80;;;34.10;52.00;;;;;;5054586;28;20084;-78
2022/07/02 10:19:28;;;;;;;5.97;3.83;;;34.10;51.70;;;;;;5054945;28;20028;-81
2022/07/02 10:21:55;;;;;;;6.43;3.72;;;33.90;51.30;;;;;;5055025;28;20742;-80
2022/07/02 10:24:23;;;;;;;8.13;3.63;;;33.90;51.70;;;;;;5069538;28;20131;-81
2022/07/02 10:26:50;;;;;;;5.60;3.60;;;34.00;51.40;;;;;;5071502;28;20074;-83
2022/07/02 10:29:18;;;;;;;6.30;4.03;;;34.20;50.80;;;;;;5053667;28;20028;-84
2022/07/02 10:31:52;;;;;;;7.38;3.80;;;34.60;51.60;;;;;;5050591;28;20445;-81
2022/07/02 10:34:30;;;;;;;8.30;4.00;;;34.80;50.30;;;;;;5036700;28;20032;-92
2022/07/02 10:36:57;;;;;;;9.80;4.80;;;34.90;50.40;;;;;;5071826;28;20036;-85
2022/07/02 10:39:24;;;;;;;6.03;4.30;;;35.00;50.70;;;;;;5051900;28;20496;-83
2022/07/02 10:41:50;;;;;;;17.63;5.35;;;35.00;50.70;;;;;;5070882;28;20487;-82
2022/07/02 10:44:16;;;;;;;7.97;4.55;;;34.90;50.70;;;;;;5051944;28;20043;-78
2022/07/02 10:46:47;;;;;;;8.70;3.88;;;34.80;51.90;;;;;;5054064;28;20031;-81
2022/07/02 10:49:24;;;;;;;7.10;4.07;;;34.50;49.90;;;;;;5051784;28;20162;-79
2022/07/02 10:51:55;;;;;;;8.35;4.03;;;34.30;50.90;;;;;;5071749;28;20067;-84
2022/07/02 10:54:29;;;;;;;;;;;34.50;51.00;;;;;;5054661;28;20479;-84
2022/07/02 10:56:55;;;;;;;4.95;3.80;;;34.80;50.80;;;;;;5069681;28;19908;-82
2022/07/02 10:59:27;;;;;;;4.78;3.70;;;34.90;50.30;;;;;;5053471;28;20161;-86
2022/07/02 11:02:07;;;;;;;7.85;3.90;;;34.80;49.80;;;;;;5054455;28;20120;-82
2022/07/02 11:04:33;;;;;;;10.40;4.00;;;34.60;50.70;;;;;;5071644;28;20086;-80
2022/07/02 11:07:11;;;;;;;6.63;4.47;;;34.50;50.40;;;;;;5071732;28;20095;-78
2022/07/02 11:09:48;;;;;;;9.65;4.60;;;34.40;50.50;;;;;;5051636;28;20187;-83
2022/07/02 11:12:19;;;;;;;6.72;3.83;;;34.30;51.70;;;;;;5053751;28;20035;-78
2022/07/02 11:14:55;;;;;;;6.65;3.80;;;34.20;50.70;;;;;;5068398;28;20051;-80
2022/07/02 11:17:24;;;;;;;9.07;4.50;;;34.30;51.20;;;;;;5066329;28;20070;-78
2022/07/02 11:19:58;;;;;;;9.52;4.15;;;34.30;50.80;;;;;;5048789;28;20564;-84
2022/07/02 11:22:30;;;;;;;9.07;4.00;;;34.40;51.60;;;;;;5051975;28;20444;-79
2022/07/02 11:24:57;;;;;;;7.25;4.03;;;34.70;51.30;;;;;;5052125;28;20041;-82
2022/07/02 11:27:22;;;;;;;5.15;4.03;;;34.90;50.80;;;;;;5052738;28;20168;-85
2022/07/02 11:29:53;;;;;;;6.75;3.90;;;35.20;50.00;;;;;;5048506;28;20552;-83
2022/07/02 11:32:19;;;;;;;;;;;35.00;49.50;;;;;;5070702;28;20020;-78
2022/07/02 11:34:45;;;;;;;5.55;3.60;;;35.00;50.00;;;;;;5051501;28;19912;-89
2022/07/02 11:37:23;;;;;;;7.43;4.07;;;34.50;49.50;;;;;;5052621;28;20013;-86
2022/07/02 11:39:48;;;;;;;4.65;3.88;;;34.50;50.30;;;;;;4703840;28;10000094;-85
2022/07/02 11:42:14;;;;;;;4.65;4.00;;;34.80;50.40;;;;;;5070867;28;20028;-86
2022/07/02 11:44:40;;;;;;;6.30;4.03;;;34.80;51.00;;;;;;5054460;28;20036;-80
2022/07/02 11:47:05;;;;;;;5.75;3.95;;;35.00;50.80;;;;;;5057884;28;20039;-83
2022/07/02 11:49:38;;;;;;;7.82;3.88;;;35.10;50.60;;;;;;5071013;28;20495;-85
2022/07/02 11:52:06;;;;;;;6.45;3.70;;;35.10;49.50;;;;;;5055017;28;20115;-81
2022/07/02 11:54:32;;;;;;;6.68;3.83;;;35.10;49.90;;;;;;5055608;28;20032;-79
2022/07/02 11:56:58;;;;;;;8.60;4.38;;;34.90;49.10;;;;;;5074018;28;20111;-81
2022/07/02 11:59:25;;;;;;;5.75;3.60;;;34.90;50.10;;;;;;5060813;28;20374;-79
2022/07/02 12:01:53;;;;;;;9.15;3.80;;;34.50;49.40;;;;;;5051599;28;20075;-87
2022/07/02 12:04:23;;;;;;;9.07;3.70;;;34.20;50.10;;;;;;5051437;28;20032;-85
2022/07/02 12:06:53;;;;;;;8.48;3.75;;;34.30;49.80;;;;;;5072277;28;20055;-79
2022/07/02 12:09:24;;;;;;;7.93;3.65;;;34.70;50.40;;;;;;5068585;28;20032;-79
2022/07/02 12:11:55;;;;;;;5.72;3.70;;;35.10;50.60;;;;;;5053096;28;20024;-81
2022/07/02 12:14:26;;;;;;;6.15;3.78;;;35.20;48.90;;;;;;5072672;28;20028;-85
2022/07/02 12:16:52;;;;;;;6.13;3.50;;;35.00;49.00;;;;;;5055937;28;20498;-83
2022/07/02 12:19:19;;;;;;;10.30;4.00;;;35.00;49.60;;;;;;5061601;28;20055;-77
2022/07/02 12:21:51;;;;;;;14.27;4.00;;;35.20;48.70;;;;;;5056714;28;20383;-85
2022/07/02 12:24:25;;;;;;;8.77;3.85;;;35.20;49.10;;;;;;5055597;28;20055;-77
2022/07/02 12:27:05;;;;;;;5.82;3.40;;;35.00;48.70;;;;;;5073469;28;20737;-81
2022/07/02 12:29:56;;;;;;;7.18;3.75;;;35.10;48.90;;;;;;5070138;28;20024;-82
2022/07/02 12:32:33;;;;;;;10.63;3.15;;;35.20;49.40;;;;;;5072360;28;20485;-82
2022/07/02 12:35:01;;;;;;;5.47;3.30;;;35.10;49.40;;;;;;5055234;28;20123;-83
2022/07/02 12:37:32;;;;;;;4.88;3.33;;;35.00;49.10;;;;;;5046336;28;20375;-83
2022/07/02 12:40:20;;;;;;;8.30;3.47;;;35.30;49.10;;;;;;5074565;28;20031;-78
2022/07/02 12:42:47;;;;;;;8.63;3.60;;;35.20;50.50;;;;;;5075225;28;20025;-85
2022/07/02 12:45:25;;;;;;;7.97;3.22;;;35.40;49.30;;;;;;5056220;28;20032;-82
2022/07/02 12:47:59;;;;;;;4.95;3.20;;;35.40;49.10;;;;;;5057304;28;20090;-92
2022/07/02 12:50:26;;;;;;;22.38;4.03;;;35.20;49.80;;;;;;4704707;28;10000463;-83
2022/07/02 12:52:53;;;;;;;6.70;3.33;;;35.30;49.40;;;;;;5056258;28;20030;-81
2022/07/02 12:55:20;;;;;;;5.60;3.28;;;35.30;48.40;;;;;;5050460;28;20085;-82
2022/07/02 12:57:46;;;;;;;6.57;3.35;;;35.10;48.20;;;;;;5055725;28;20051;-82
2022/07/02 13:00:12;;;;;;;5.28;3.25;;;34.90;48.50;;;;;;5054040;28;20804;-78